sensor_id;sensor_type;location;lat;lon;timestamp;pressure;altitude;pressure_sealevel;temperature;humidity
550;BME280;20066;48.764;9.176;2023-05-24T00:00:28;98503.66;;;14.91;61.17
550;BME280;20066;48.764;9.176;2023-05-24T00:02:56;98503.13;;;15.03;59.81
550;BME280;20066;48.764;9.176;2023-05-24T00:05:24;98504.38;;;14.95;60.96
550;BME280;20066;48.764;9.176;2023-05-24T00:07:52;98502.66;;;15.08;60.62
550;BME280;20066;48.764;9.176;2023-05-24T00:10:22;98495.03;;;15.33;59.65
550;BME280;20066;48.764;9.176;2023-05-24T00:12:49;98497.97;;;15.73;58.43
550;BME280;20066;48.764;9.176;2023-05-24T00:15:17;98488.44;;;15.88;57.90
550;BME280;20066;48.764;9.176;2023-05-24T00:17:45;98489.84;;;14.44;61.60
550;BME280;20066;48.764;9.176;2023-05-24T00:20:13;98493.63;;;14.50;60.81
550;BME280;20066;48.764;9.176;2023-05-24T00:22:41;98487.25;;;15.05;59.63
550;BME280;20066;48.764;9.176;2023-05-24T00:25:08;98489.78;;;14.85;60.48
550;BME280;20066;48.764;9.176;2023-05-24T00:27:38;98488.94;;;14.92;60.70
550;BME280;20066;48.764;9.176;2023-05-24T00:30:06;98484.16;;;15.37;58.80
550;BME280;20066;48.764;9.176;2023-05-24T00:32:34;98483.25;;;15.17;60.44
550;BME280;20066;48.764;9.176;2023-05-24T00:35:02;98481.16;;;15.58;58.50
550;BME280;20066;48.764;9.176;2023-05-24T00:37:30;98480.25;;;15.38;58.30
550;BME280;20066;48.764;9.176;2023-05-24T00:39:58;98472.06;;;14.43;60.88
550;BME280;20066;48.764;9.176;2023-05-24T00:42:26;98479.09;;;14.71;61.68
550;BME280;20066;48.764;9.176;2023-05-24T00:44:55;98472.75;;;14.85;60.91
550;BME280;20066;48.764;9.176;2023-05-24T00:47:22;98478.84;;;15.30;58.41
550;BME280;20066;48.764;9.176;2023-05-24T00:49:50;98478.16;;;15.22;58.13
550;BME280;20066;48.764;9.176;2023-05-24T00:52:18;98475.25;;;15.90;57.65
550;BME280;20066;48.764;9.176;2023-05-24T00:54:47;98475.84;;;14.87;58.37
550;BME280;20066;48.764;9.176;2023-05-24T00:57:15;98474.03;;;15.11;56.94
550;BME280;20066;48.764;9.176;2023-05-24T00:59:44;98480.09;;;15.22;56.66
550;BME280;20066;48.764;9.176;2023-05-24T01:02:13;98473.59;;;14.44;57.30
550;BME280;20066;48.764;9.176;2023-05-24T01:04:42;98468.78;;;14.21;58.48
550;BME280;20066;48.764;9.176;2023-05-24T01:07:17;98469.47;;;13.81;59.34
550;BME280;20066;48.764;9.176;2023-05-24T01:09:57;98477.72;;;14.56;56.41
550;BME280;20066;48.764;9.176;2023-05-24T01:12:34;98478.34;;;14.71;57.52
550;BME280;20066;48.764;9.176;2023-05-24T01:15:09;98482.72;;;14.16;57.78
550;BME280;20066;48.764;9.176;2023-05-24T01:17:50;98477.63;;;14.25;57.32
550;BME280;20066;48.764;9.176;2023-05-24T01:20:22;98478.84;;;13.66;58.91
550;BME280;20066;48.764;9.176;2023-05-24T01:23:06;98469.50;;;14.29;58.25
550;BME280;20066;48.764;9.176;2023-05-24T01:25:47;98474.50;;;15.02;55.11
550;BME280;20066;48.764;9.176;2023-05-24T01:28:17;98478.31;;;15.38;54.52
550;BME280;20066;48.764;9.176;2023-05-24T01:30:47;98475.75;;;15.28;55.02
550;BME280;20066;48.764;9.176;2023-05-24T01:33:15;98472.38;;;14.49;56.11
550;BME280;20066;48.764;9.176;2023-05-24T01:35:43;98477.78;;;14.49;56.80
550;BME280;20066;48.764;9.176;2023-05-24T01:38:11;98476.22;;;14.51;56.36
550;BME280;20066;48.764;9.176;2023-05-24T01:40:39;98475.19;;;14.38;55.66
550;BME280;20066;48.764;9.176;2023-05-24T01:43:13;98475.47;;;14.85;54.24
550;BME280;20066;48.764;9.176;2023-05-24T01:45:49;98468.03;;;14.17;55.61
550;BME280;20066;48.764;9.176;2023-05-24T01:48:26;98475.22;;;14.35;55.14
550;BME280;20066;48.764;9.176;2023-05-24T01:50:58;98470.53;;;14.39;55.09
550;BME280;20066;48.764;9.176;2023-05-24T01:53:32;98483.72;;;15.12;53.58
550;BME280;20066;48.764;9.176;2023-05-24T01:56:02;98480.25;;;14.74;53.90
550;BME280;20066;48.764;9.176;2023-05-24T01:58:32;98484.25;;;14.96;53.10
550;BME280;20066;48.764;9.176;2023-05-24T02:01:02;98479.78;;;14.82;54.23
550;BME280;20066;48.764;9.176;2023-05-24T02:03:30;98481.91;;;14.64;54.50
550;BME280;20066;48.764;9.176;2023-05-24T02:05:58;98472.91;;;14.37;55.73
550;BME280;20066;48.764;9.176;2023-05-24T02:08:26;98479.19;;;13.75;56.65
550;BME280;20066;48.764;9.176;2023-05-24T02:10:54;98487.66;;;14.28;55.81
550;BME280;20066;48.764;9.176;2023-05-24T02:13:21;98479.63;;;14.93;54.43
550;BME280;20066;48.764;9.176;2023-05-24T02:15:49;98487.22;;;14.75;54.50
550;BME280;20066;48.764;9.176;2023-05-24T02:18:20;98493.53;;;14.98;53.29
550;BME280;20066;48.764;9.176;2023-05-24T02:20:48;98491.69;;;14.88;53.71
550;BME280;20066;48.764;9.176;2023-05-24T02:23:16;98488.63;;;14.04;56.89
550;BME280;20066;48.764;9.176;2023-05-24T02:25:44;98487.56;;;13.87;56.45
550;BME280;20066;48.764;9.176;2023-05-24T02:28:11;98481.06;;;13.81;56.32
550;BME280;20066;48.764;9.176;2023-05-24T02:30:39;98489.75;;;14.51;55.18
550;BME280;20066;48.764;9.176;2023-05-24T02:33:10;98491.72;;;13.40;57.72
550;BME280;20066;48.764;9.176;2023-05-24T02:35:40;98488.09;;;14.61;55.16
550;BME280;20066;48.764;9.176;2023-05-24T02:38:07;98487.47;;;14.50;54.48
550;BME280;20066;48.764;9.176;2023-05-24T02:40:35;98493.16;;;14.14;56.14
550;BME280;20066;48.764;9.176;2023-05-24T02:43:03;98489.31;;;14.60;54.64
550;BME280;20066;48.764;9.176;2023-05-24T02:45:31;98491.34;;;14.04;56.76
550;BME280;20066;48.764;9.176;2023-05-24T02:47:59;98486.47;;;13.81;57.12
550;BME280;20066;48.764;9.176;2023-05-24T02:50:27;98479.59;;;14.21;56.91
550;BME280;20066;48.764;9.176;2023-05-24T02:52:56;98480.34;;;14.25;56.38
550;BME280;20066;48.764;9.176;2023-05-24T02:55:24;98489.63;;;12.96;59.89
550;BME280;20066;48.764;9.176;2023-05-24T02:57:52;98495.66;;;13.22;59.00
550;BME280;20066;48.764;9.176;2023-05-24T03:00:20;98492.84;;;14.09;57.34
550;BME280;20066;48.764;9.176;2023-05-24T03:02:48;98491.44;;;13.21;59.85
550;BME280;20066;48.764;9.176;2023-05-24T03:05:18;98479.03;;;13.93;56.85
550;BME280;20066;48.764;9.176;2023-05-24T03:07:45;98480.63;;;13.86;57.89
550;BME280;20066;48.764;9.176;2023-05-24T03:10:15;98488.16;;;13.54;57.71
550;BME280;20066;48.764;9.176;2023-05-24T03:12:42;98478.19;;;14.03;56.59
550;BME280;20066;48.764;9.176;2023-05-24T03:15:10;98479.84;;;13.89;58.03
550;BME280;20066;48.764;9.176;2023-05-24T03:17:38;98484.59;;;13.75;57.58
550;BME280;20066;48.764;9.176;2023-05-24T03:20:07;98495.78;;;14.25;56.62
550;BME280;20066;48.764;9.176;2023-05-24T03:22:37;98489.00;;;14.51;55.75
550;BME280;20066;48.764;9.176;2023-05-24T03:25:05;98487.47;;;13.43;58.43
550;BME280;20066;48.764;9.176;2023-05-24T03:27:35;98491.50;;;13.79;57.77
550;BME280;20066;48.764;9.176;2023-05-24T03:30:04;98482.50;;;13.31;57.89
550;BME280;20066;48.764;9.176;2023-05-24T03:32:32;98489.50;;;13.87;56.74
550;BME280;20066;48.764;9.176;2023-05-24T03:35:00;98484.47;;;13.89;57.37
550;BME280;20066;48.764;9.176;2023-05-24T03:37:28;98485.81;;;14.59;54.87
550;BME280;20066;48.764;9.176;2023-05-24T03:39:55;98481.88;;;13.71;57.05
550;BME280;20066;48.764;9.176;2023-05-24T03:42:23;98485.41;;;13.61;57.61
550;BME280;20066;48.764;9.176;2023-05-24T03:44:52;98483.66;;;14.81;54.90
550;BME280;20066;48.764;9.176;2023-05-24T03:47:20;98496.22;;;13.61;57.18
550;BME280;20066;48.764;9.176;2023-05-24T03:49:48;98488.44;;;13.74;57.29
550;BME280;20066;48.764;9.176;2023-05-24T03:52:16;98488.00;;;13.06;58.89
550;BME280;20066;48.764;9.176;2023-05-24T03:54:44;98488.00;;;13.82;57.71
550;BME280;20066;48.764;9.176;2023-05-24T03:57:12;98491.00;;;13.91;57.09
550;BME280;20066;48.764;9.176;2023-05-24T03:59:40;98485.94;;;13.38;59.39
550;BME280;20066;48.764;9.176;2023-05-24T04:02:09;98486.72;;;13.42;58.94
550;BME280;20066;48.764;9.176;2023-05-24T04:04:38;98476.91;;;13.63;58.16
550;BME280;20066;48.764;9.176;2023-05-24T04:07:07;98478.22;;;13.44;58.52
550;BME280;20066;48.764;9.176;2023-05-24T04:09:37;98471.09;;;12.84;59.27
550;BME280;20066;48.764;9.176;2023-05-24T04:12:05;98485.66;;;13.15;58.71
550;BME280;20066;48.764;9.176;2023-05-24T04:14:33;98475.28;;;13.10;59.56
550;BME280;20066;48.764;9.176;2023-05-24T04:17:01;98475.41;;;12.71;60.31
550;BME280;20066;48.764;9.176;2023-05-24T04:19:32;98473.91;;;12.49;61.83
550;BME280;20066;48.764;9.176;2023-05-24T04:22:00;98474.81;;;13.26;60.22
550;BME280;20066;48.764;9.176;2023-05-24T04:24:28;98469.25;;;13.54;58.01
550;BME280;20066;48.764;9.176;2023-05-24T04:26:56;98476.50;;;13.68;57.85
550;BME280;20066;48.764;9.176;2023-05-24T04:29:24;98475.41;;;13.58;58.99
550;BME280;20066;48.764;9.176;2023-05-24T04:31:53;98474.50;;;13.13;59.82
550;BME280;20066;48.764;9.176;2023-05-24T04:34:21;98476.25;;;12.43;61.45
550;BME280;20066;48.764;9.176;2023-05-24T04:36:51;98481.72;;;13.34;58.65
550;BME280;20066;48.764;9.176;2023-05-24T04:39:19;98487.94;;;13.27;59.74
550;BME280;20066;48.764;9.176;2023-05-24T04:41:47;98487.47;;;13.39;59.55
550;BME280;20066;48.764;9.176;2023-05-24T04:44:16;98496.00;;;13.97;57.82
550;BME280;20066;48.764;9.176;2023-05-24T04:46:45;98488.09;;;12.77;61.65
550;BME280;20066;48.764;9.176;2023-05-24T04:49:14;98497.28;;;13.81;58.66
550;BME280;20066;48.764;9.176;2023-05-24T04:51:42;98497.97;;;13.27;59.83
550;BME280;20066;48.764;9.176;2023-05-24T04:54:11;98493.72;;;13.91;57.97
550;BME280;20066;48.764;9.176;2023-05-24T04:56:40;98510.44;;;12.92;60.64
550;BME280;20066;48.764;9.176;2023-05-24T04:59:09;98506.97;;;12.95;59.08
550;BME280;20066;48.764;9.176;2023-05-24T05:01:37;98511.03;;;13.42;58.42
550;BME280;20066;48.764;9.176;2023-05-24T05:04:06;98511.56;;;13.12;60.16
550;BME280;20066;48.764;9.176;2023-05-24T05:06:35;98516.78;;;13.48;58.06
550;BME280;20066;48.764;9.176;2023-05-24T05:09:06;98513.75;;;14.05;56.25
550;BME280;20066;48.764;9.176;2023-05-24T05:11:37;98518.97;;;12.69;59.88
550;BME280;20066;48.764;9.176;2023-05-24T05:14:06;98520.56;;;13.65;57.25
550;BME280;20066;48.764;9.176;2023-05-24T05:16:35;98514.66;;;13.04;59.34
550;BME280;20066;48.764;9.176;2023-05-24T05:19:04;98517.34;;;13.07;59.79
550;BME280;20066;48.764;9.176;2023-05-24T05:21:32;98518.47;;;13.13;60.18
550;BME280;20066;48.764;9.176;2023-05-24T05:24:01;98509.44;;;13.52;59.52
550;BME280;20066;48.764;9.176;2023-05-24T05:26:29;98517.41;;;13.70;58.77
550;BME280;20066;48.764;9.176;2023-05-24T05:28:59;98520.41;;;13.09;59.20
550;BME280;20066;48.764;9.176;2023-05-24T05:31:28;98524.34;;;12.80;61.88
550;BME280;20066;48.764;9.176;2023-05-24T05:33:56;98513.63;;;12.09;63.26
550;BME280;20066;48.764;9.176;2023-05-24T05:36:24;98522.91;;;13.59;59.04
550;BME280;20066;48.764;9.176;2023-05-24T05:38:52;98523.28;;;13.58;59.61
550;BME280;20066;48.764;9.176;2023-05-24T05:41:20;98518.13;;;13.01;59.41
550;BME280;20066;48.764;9.176;2023-05-24T05:43:48;98520.75;;;13.26;58.83
550;BME280;20066;48.764;9.176;2023-05-24T05:46:17;98515.34;;;13.95;57.63
550;BME280;20066;48.764;9.176;2023-05-24T05:48:46;98522.28;;;13.27;59.65
550;BME280;20066;48.764;9.176;2023-05-24T05:51:14;98511.22;;;12.86;60.10
550;BME280;20066;48.764;9.176;2023-05-24T05:53:42;98522.09;;;12.40;61.39
550;BME280;20066;48.764;9.176;2023-05-24T05:56:10;98508.50;;;13.76;58.56
550;BME280;20066;48.764;9.176;2023-05-24T05:58:37;98518.53;;;13.79;57.61
550;BME280;20066;48.764;9.176;2023-05-24T06:01:05;98514.75;;;14.25;56.01
550;BME280;20066;48.764;9.176;2023-05-24T06:03:34;98513.06;;;13.86;58.23
550;BME280;20066;48.764;9.176;2023-05-24T06:06:03;98520.16;;;14.25;56.56
550;BME280;20066;48.764;9.176;2023-05-24T06:08:31;98518.22;;;14.22;56.01
550;BME280;20066;48.764;9.176;2023-05-24T06:11:00;98516.91;;;13.16;59.90
550;BME280;20066;48.764;9.176;2023-05-24T06:13:28;98510.22;;;14.08;57.50
550;BME280;20066;48.764;9.176;2023-05-24T06:15:56;98509.88;;;13.40;59.22
550;BME280;20066;48.764;9.176;2023-05-24T06:18:25;98512.75;;;14.33;56.71
550;BME280;20066;48.764;9.176;2023-05-24T06:20:57;98514.28;;;12.84;58.78
550;BME280;20066;48.764;9.176;2023-05-24T06:23:25;98511.66;;;14.23;55.66
550;BME280;20066;48.764;9.176;2023-05-24T06:25:52;98508.56;;;14.65;54.78
550;BME280;20066;48.764;9.176;2023-05-24T06:28:21;98501.50;;;13.17;58.67
550;BME280;20066;48.764;9.176;2023-05-24T06:30:49;98514.41;;;14.16;56.98
550;BME280;20066;48.764;9.176;2023-05-24T06:33:17;98512.88;;;13.56;57.33
550;BME280;20066;48.764;9.176;2023-05-24T06:35:45;98508.19;;;15.01;53.46
550;BME280;20066;48.764;9.176;2023-05-24T06:38:14;98511.63;;;12.77;59.93
550;BME280;20066;48.764;9.176;2023-05-24T06:40:43;98517.03;;;13.75;56.88
550;BME280;20066;48.764;9.176;2023-05-24T06:43:10;98517.44;;;14.28;55.50
550;BME280;20066;48.764;9.176;2023-05-24T06:45:38;98522.06;;;13.69;57.27
550;BME280;20066;48.764;9.176;2023-05-24T06:48:07;98524.06;;;13.58;58.49
550;BME280;20066;48.764;9.176;2023-05-24T06:50:35;98524.06;;;13.58;56.82
550;BME280;20066;48.764;9.176;2023-05-24T06:53:07;98529.34;;;13.79;58.03
550;BME280;20066;48.764;9.176;2023-05-24T06:55:37;98532.75;;;13.90;56.34
550;BME280;20066;48.764;9.176;2023-05-24T06:58:05;98531.84;;;14.59;55.48
550;BME280;20066;48.764;9.176;2023-05-24T07:00:33;98539.13;;;15.03;53.62
550;BME280;20066;48.764;9.176;2023-05-24T07:03:01;98535.63;;;13.62;58.40
550;BME280;20066;48.764;9.176;2023-05-24T07:05:29;98543.19;;;14.44;56.03
550;BME280;20066;48.764;9.176;2023-05-24T07:07:56;98543.19;;;13.88;55.83
550;BME280;20066;48.764;9.176;2023-05-24T07:10:24;98544.78;;;13.79;57.64
550;BME280;20066;48.764;9.176;2023-05-24T07:12:53;98548.44;;;13.47;58.38
550;BME280;20066;48.764;9.176;2023-05-24T07:15:21;98558.78;;;13.63;59.35
550;BME280;20066;48.764;9.176;2023-05-24T07:17:50;98561.00;;;12.88;59.56
550;BME280;20066;48.764;9.176;2023-05-24T07:20:18;98557.34;;;13.37;58.33
550;BME280;20066;48.764;9.176;2023-05-24T07:22:46;98568.47;;;13.57;58.91
550;BME280;20066;48.764;9.176;2023-05-24T07:25:14;98569.41;;;13.08;60.07
550;BME280;20066;48.764;9.176;2023-05-24T07:27:42;98564.38;;;13.97;57.62
550;BME280;20066;48.764;9.176;2023-05-24T07:30:12;98565.72;;;13.64;57.57
550;BME280;20066;48.764;9.176;2023-05-24T07:32:57;98572.91;;;13.05;58.71
550;BME280;20066;48.764;9.176;2023-05-24T07:35:25;98577.56;;;12.72;60.62
550;BME280;20066;48.764;9.176;2023-05-24T07:37:54;98576.00;;;13.00;59.97
550;BME280;20066;48.764;9.176;2023-05-24T07:40:21;98585.56;;;13.29;58.89
550;BME280;20066;48.764;9.176;2023-05-24T07:42:50;98579.03;;;13.27;58.88
550;BME280;20066;48.764;9.176;2023-05-24T07:45:19;98579.91;;;13.89;57.00
550;BME280;20066;48.764;9.176;2023-05-24T07:47:47;98577.25;;;13.79;56.79
550;BME280;20066;48.764;9.176;2023-05-24T07:50:15;98577.38;;;14.23;57.26
550;BME280;20066;48.764;9.176;2023-05-24T07:52:43;98585.25;;;13.13;59.13
550;BME280;20066;48.764;9.176;2023-05-24T07:55:11;98579.88;;;12.92;59.29
550;BME280;20066;48.764;9.176;2023-05-24T07:57:40;98579.84;;;13.13;60.32
550;BME280;20066;48.764;9.176;2023-05-24T08:00:09;98581.22;;;14.22;56.83
550;BME280;20066;48.764;9.176;2023-05-24T08:02:42;98589.63;;;13.69;57.10
550;BME280;20066;48.764;9.176;2023-05-24T08:05:12;98585.84;;;14.25;56.36
550;BME280;20066;48.764;9.176;2023-05-24T08:07:40;98580.03;;;13.65;57.27
550;BME280;20066;48.764;9.176;2023-05-24T08:10:09;98585.78;;;13.70;57.12
550;BME280;20066;48.764;9.176;2023-05-24T08:12:38;98590.53;;;13.38;58.25
550;BME280;20066;48.764;9.176;2023-05-24T08:15:06;98588.75;;;13.94;57.29
550;BME280;20066;48.764;9.176;2023-05-24T08:17:34;98597.66;;;13.87;55.65
550;BME280;20066;48.764;9.176;2023-05-24T08:20:05;98599.28;;;13.74;58.13
550;BME280;20066;48.764;9.176;2023-05-24T08:22:34;98593.25;;;13.38;58.23
550;BME280;20066;48.764;9.176;2023-05-24T08:25:03;98601.16;;;13.87;57.53
550;BME280;20066;48.764;9.176;2023-05-24T08:27:31;98603.66;;;14.23;56.13
550;BME280;20066;48.764;9.176;2023-05-24T08:29:59;98604.38;;;13.58;58.59
550;BME280;20066;48.764;9.176;2023-05-24T08:32:27;98606.06;;;14.10;55.94
550;BME280;20066;48.764;9.176;2023-05-24T08:34:55;98611.03;;;13.32;57.89
550;BME280;20066;48.764;9.176;2023-05-24T08:37:37;98613.31;;;13.37;59.71
550;BME280;20066;48.764;9.176;2023-05-24T08:40:06;98611.81;;;13.36;58.14
550;BME280;20066;48.764;9.176;2023-05-24T08:42:37;98612.13;;;13.52;57.63
550;BME280;20066;48.764;9.176;2023-05-24T08:45:08;98614.09;;;13.37;58.05
550;BME280;20066;48.764;9.176;2023-05-24T08:47:37;98611.66;;;13.71;57.13
550;BME280;20066;48.764;9.176;2023-05-24T08:50:06;98608.78;;;13.02;58.34
550;BME280;20066;48.764;9.176;2023-05-24T08:52:35;98610.00;;;13.91;56.46
550;BME280;20066;48.764;9.176;2023-05-24T08:55:05;98613.94;;;15.31;53.31
550;BME280;20066;48.764;9.176;2023-05-24T08:57:33;98619.69;;;15.37;52.53
550;BME280;20066;48.764;9.176;2023-05-24T09:00:06;98610.41;;;13.90;55.56
550;BME280;20066;48.764;9.176;2023-05-24T09:02:37;98614.84;;;15.18;53.35
550;BME280;20066;48.764;9.176;2023-05-24T09:05:08;98613.66;;;14.29;55.01
550;BME280;20066;48.764;9.176;2023-05-24T09:07:37;98620.09;;;14.94;53.32
550;BME280;20066;48.764;9.176;2023-05-24T09:10:07;98613.66;;;13.57;57.27
550;BME280;20066;48.764;9.176;2023-05-24T09:12:36;98610.84;;;13.78;56.75
550;BME280;20066;48.764;9.176;2023-05-24T09:15:07;98613.22;;;13.62;56.37
550;BME280;20066;48.764;9.176;2023-05-24T09:17:35;98605.97;;;13.48;57.49
550;BME280;20066;48.764;9.176;2023-05-24T09:20:05;98610.59;;;14.24;54.35
550;BME280;20066;48.764;9.176;2023-05-24T09:22:36;98603.50;;;13.78;57.15
550;BME280;20066;48.764;9.176;2023-05-24T09:25:11;98605.50;;;13.67;55.87
550;BME280;20066;48.764;9.176;2023-05-24T09:27:39;98603.59;;;14.34;54.10
550;BME280;20066;48.764;9.176;2023-05-24T09:30:08;98607.56;;;15.08;52.25
550;BME280;20066;48.764;9.176;2023-05-24T09:32:38;98606.09;;;14.03;55.24
550;BME280;20066;48.764;9.176;2023-05-24T09:35:08;98603.00;;;15.01;53.44
550;BME280;20066;48.764;9.176;2023-05-24T09:37:36;98608.00;;;15.06;51.77
550;BME280;20066;48.764;9.176;2023-05-24T09:40:16;98613.97;;;14.42;54.49
550;BME280;20066;48.764;9.176;2023-05-24T09:42:45;98619.25;;;15.01;52.98
550;BME280;20066;48.764;9.176;2023-05-24T09:45:14;98615.25;;;15.16;52.27
550;BME280;20066;48.764;9.176;2023-05-24T09:47:44;98611.66;;;13.71;55.86
550;BME280;20066;48.764;9.176;2023-05-24T09:50:14;98617.38;;;14.98;52.74
550;BME280;20066;48.764;9.176;2023-05-24T09:52:44;98614.66;;;13.84;55.06
550;BME280;20066;48.764;9.176;2023-05-24T09:55:13;98620.00;;;14.60;53.76
550;BME280;20066;48.764;9.176;2023-05-24T09:57:42;98623.22;;;15.30;51.71
550;BME280;20066;48.764;9.176;2023-05-24T10:00:14;98625.59;;;13.66;54.24
550;BME280;20066;48.764;9.176;2023-05-24T10:02:59;98628.03;;;14.19;54.24
550;BME280;20066;48.764;9.176;2023-05-24T10:05:29;98621.03;;;14.25;53.49
550;BME280;20066;48.764;9.176;2023-05-24T10:07:58;98619.50;;;14.24;53.66
550;BME280;20066;48.764;9.176;2023-05-24T10:10:29;98620.66;;;15.20;52.49
550;BME280;20066;48.764;9.176;2023-05-24T10:12:59;98619.59;;;15.07;51.96
550;BME280;20066;48.764;9.176;2023-05-24T10:15:28;98620.34;;;15.07;53.25
550;BME280;20066;48.764;9.176;2023-05-24T10:17:57;98610.44;;;13.83;55.01
550;BME280;20066;48.764;9.176;2023-05-24T10:20:26;98616.78;;;13.37;57.50
550;BME280;20066;48.764;9.176;2023-05-24T10:22:58;98615.72;;;13.21;57.52
550;BME280;20066;48.764;9.176;2023-05-24T10:25:33;98611.91;;;14.57;54.46
550;BME280;20066;48.764;9.176;2023-05-24T10:28:04;98615.34;;;14.09;55.11
550;BME280;20066;48.764;9.176;2023-05-24T10:30:39;98607.38;;;13.77;56.26
550;BME280;20066;48.764;9.176;2023-05-24T10:33:10;98621.03;;;14.22;55.55
550;BME280;20066;48.764;9.176;2023-05-24T10:35:40;98612.25;;;14.11;54.10
550;BME280;20066;48.764;9.176;2023-05-24T10:38:08;98613.63;;;13.67;55.84
550;BME280;20066;48.764;9.176;2023-05-24T10:40:41;98615.19;;;13.54;55.46
550;BME280;20066;48.764;9.176;2023-05-24T10:43:09;98613.97;;;13.73;55.38
550;BME280;20066;48.764;9.176;2023-05-24T10:45:38;98609.53;;;13.06;56.50
550;BME280;20066;48.764;9.176;2023-05-24T10:48:16;98614.91;;;14.18;54.25
550;BME280;20066;48.764;9.176;2023-05-24T10:50:48;98606.81;;;13.27;56.23
550;BME280;20066;48.764;9.176;2023-05-24T10:53:17;98611.47;;;14.14;54.37
550;BME280;20066;48.764;9.176;2023-05-24T10:55:53;98601.53;;;14.48;52.56
550;BME280;20066;48.764;9.176;2023-05-24T10:58:26;98606.63;;;13.70;54.96
550;BME280;20066;48.764;9.176;2023-05-24T11:00:56;98609.72;;;13.68;54.53
550;BME280;20066;48.764;9.176;2023-05-24T11:03:24;98597.38;;;13.71;54.67
550;BME280;20066;48.764;9.176;2023-05-24T11:05:54;98604.03;;;14.28;52.03
550;BME280;20066;48.764;9.176;2023-05-24T11:08:23;98610.69;;;14.10;51.38
550;BME280;20066;48.764;9.176;2023-05-24T11:11:06;98606.63;;;14.87;50.90
550;BME280;20066;48.764;9.176;2023-05-24T11:13:55;98610.81;;;14.47;52.39
550;BME280;20066;48.764;9.176;2023-05-24T11:16:34;98598.09;;;15.30;50.05
550;BME280;20066;48.764;9.176;2023-05-24T11:19:15;98610.91;;;15.90;48.61
550;BME280;20066;48.764;9.176;2023-05-24T11:21:44;98601.16;;;13.84;51.19
550;BME280;20066;48.764;9.176;2023-05-24T11:24:15;98599.50;;;15.72;48.29
550;BME280;20066;48.764;9.176;2023-05-24T11:26:44;98596.19;;;14.86;50.14
550;BME280;20066;48.764;9.176;2023-05-24T11:29:12;98602.47;;;15.17;48.78
550;BME280;20066;48.764;9.176;2023-05-24T11:31:49;98598.75;;;15.71;46.46
550;BME280;20066;48.764;9.176;2023-05-24T11:34:18;98594.78;;;16.33;45.84
550;BME280;20066;48.764;9.176;2023-05-24T11:36:47;98592.97;;;15.96;46.36
550;BME280;20066;48.764;9.176;2023-05-24T11:39:15;98590.06;;;15.84;46.94
550;BME280;20066;48.764;9.176;2023-05-24T11:41:46;98590.97;;;16.77;43.79
550;BME280;20066;48.764;9.176;2023-05-24T11:44:16;98594.31;;;16.15;45.11
550;BME280;20066;48.764;9.176;2023-05-24T11:46:44;98589.88;;;16.25;45.52
550;BME280;20066;48.764;9.176;2023-05-24T11:49:14;98587.66;;;17.13;42.71
550;BME280;20066;48.764;9.176;2023-05-24T11:51:42;98584.19;;;16.42;44.39
550;BME280;20066;48.764;9.176;2023-05-24T11:54:10;98579.69;;;19.65;39.39
550;BME280;20066;48.764;9.176;2023-05-24T11:56:38;98577.75;;;20.42;37.31
550;BME280;20066;48.764;9.176;2023-05-24T11:59:13;98581.75;;;22.55;33.05
550;BME280;20066;48.764;9.176;2023-05-24T12:01:42;98569.44;;;18.70;38.47
550;BME280;20066;48.764;9.176;2023-05-24T12:04:10;98567.56;;;19.53;37.58
550;BME280;20066;48.764;9.176;2023-05-24T12:06:39;98574.00;;;20.73;35.03
550;BME280;20066;48.764;9.176;2023-05-24T12:09:09;98571.88;;;18.97;34.13
550;BME280;20066;48.764;9.176;2023-05-24T12:11:39;98571.00;;;19.00;34.64
550;BME280;20066;48.764;9.176;2023-05-24T12:14:12;98576.47;;;19.95;34.11
550;BME280;20066;48.764;9.176;2023-05-24T12:16:41;98576.00;;;22.13;31.09
550;BME280;20066;48.764;9.176;2023-05-24T12:19:12;98570.41;;;22.93;30.05
550;BME280;20066;48.764;9.176;2023-05-24T12:21:59;98577.03;;;24.16;29.88
550;BME280;20066;48.764;9.176;2023-05-24T12:24:27;98571.72;;;22.03;31.08
550;BME280;20066;48.764;9.176;2023-05-24T12:26:58;98574.22;;;22.95;29.96
550;BME280;20066;48.764;9.176;2023-05-24T12:29:33;98565.59;;;21.99;31.42
550;BME280;20066;48.764;9.176;2023-05-24T12:32:02;98570.44;;;27.02;25.73
550;BME280;20066;48.764;9.176;2023-05-24T12:34:31;98563.75;;;25.24;25.27
550;BME280;20066;48.764;9.176;2023-05-24T12:36:59;98554.34;;;22.64;28.06
550;BME280;20066;48.764;9.176;2023-05-24T12:39:28;98557.22;;;20.37;32.60
550;BME280;20066;48.764;9.176;2023-05-24T12:41:58;98551.94;;;21.46;31.97
550;BME280;20066;48.764;9.176;2023-05-24T12:44:28;98551.84;;;24.41;26.79
550;BME280;20066;48.764;9.176;2023-05-24T12:46:58;98551.38;;;21.29;31.20
550;BME280;20066;48.764;9.176;2023-05-24T12:49:26;98546.09;;;20.19;33.43
550;BME280;20066;48.764;9.176;2023-05-24T12:51:55;98541.75;;;21.03;32.34
550;BME280;20066;48.764;9.176;2023-05-24T12:54:25;98538.59;;;22.28;29.68
550;BME280;20066;48.764;9.176;2023-05-24T12:56:54;98543.13;;;24.19;28.38
550;BME280;20066;48.764;9.176;2023-05-24T12:59:23;98543.53;;;25.27;26.44
550;BME280;20066;48.764;9.176;2023-05-24T13:01:51;98547.28;;;24.86;27.23
550;BME280;20066;48.764;9.176;2023-05-24T13:04:21;98536.38;;;23.87;27.09
550;BME280;20066;48.764;9.176;2023-05-24T13:06:51;98544.09;;;23.98;27.36
550;BME280;20066;48.764;9.176;2023-05-24T13:09:19;98545.84;;;25.44;25.30
550;BME280;20066;48.764;9.176;2023-05-24T13:11:49;98527.06;;;22.70;30.45
550;BME280;20066;48.764;9.176;2023-05-24T13:14:17;98533.16;;;23.89;26.77
550;BME280;20066;48.764;9.176;2023-05-24T13:16:46;98527.88;;;25.48;25.71
550;BME280;20066;48.764;9.176;2023-05-24T13:19:15;98527.72;;;21.44;28.22
550;BME280;20066;48.764;9.176;2023-05-24T13:21:44;98522.63;;;22.45;30.08
550;BME280;20066;48.764;9.176;2023-05-24T13:24:13;98522.34;;;23.43;28.55
550;BME280;20066;48.764;9.176;2023-05-24T13:26:42;98518.41;;;22.98;28.99
550;BME280;20066;48.764;9.176;2023-05-24T13:29:10;98524.72;;;24.73;26.48
550;BME280;20066;48.764;9.176;2023-05-24T13:31:41;98518.31;;;27.35;23.97
550;BME280;20066;48.764;9.176;2023-05-24T13:34:10;98517.53;;;25.43;25.61